Time;durP1;ratioP1;P1;durP2;ratioP2;P2;SDS_P1;SDS_P2;PMS_P1;PMS_P2;Temp;Humidity;BMP_temperature;BMP_pressure;BME280_temperature;BME280_humidity;BME280_pressure;Samples;Min_cycle;Max_cycle;Signal;HPM_P1;HPM_P2
2022/05/24 00:01:13;;;;;;;13.52;8.05;;;;;;;19.62;63.25;94273.00;5069167;28;20211;-90
2022/05/24 00:03:52;;;;;;;12.88;8.15;;;;;;;19.51;64.15;94261.00;5069760;28;20220;-90
2022/05/24 00:06:25;;;;;;;12.82;7.70;;;;;;;19.69;64.71;94280.56;5073525;28;20205;-89
2022/05/24 00:08:58;;;;;;;13.30;6.63;;;;;;;19.53;65.16;94253.63;5071495;28;20297;-89
2022/05/24 00:11:27;;;;;;;12.18;6.53;;;;;;;19.57;64.78;94277.53;5066019;28;20209;-90
2022/05/24 00:14:05;;;;;;;8.45;5.82;;;;;;;19.57;64.54;94278.34;5070379;28;20320;-89
2022/05/24 00:16:42;;;;;;;11.32;6.00;;;;;;;19.30;65.16;94259.66;5067364;28;20198;-89
2022/05/24 00:19:15;;;;;;;12.43;6.20;;;;;;;19.33;64.93;94272.28;5066692;28;20671;-90
2022/05/24 00:21:42;;;;;;;11.32;5.97;;;;;;;19.20;65.98;94260.56;5069762;28;20749;-90
2022/05/24 00:24:13;;;;;;;9.63;6.40;;;;;;;19.25;66.31;94270.25;5066766;28;20201;-89
2022/05/24 00:26:46;;;;;;;8.43;5.68;;;;;;;19.25;66.61;94283.41;5071507;28;20240;-91
2022/05/24 00:29:18;;;;;;;15.73;5.97;;;;;;;19.22;67.16;94284.75;5072459;28;20221;-89
2022/05/24 00:31:50;;;;;;;11.20;6.97;;;;;;;19.24;66.80;94281.88;5070702;28;20200;-92
2022/05/24 00:34:22;;;;;;;10.77;6.20;;;;;;;19.09;65.89;94268.84;5074067;28;20221;-91
2022/05/24 00:36:51;;;;;;;7.35;5.20;;;;;;;19.19;65.08;94285.31;5070190;28;20229;-92
2022/05/24 00:39:22;;;;;;;11.05;5.78;;;;;;;19.14;64.84;94282.75;5071846;28;20252;-91
2022/05/24 00:42:02;;;;;;;9.88;5.57;;;;;;;19.12;64.65;94287.53;5068170;28;20298;-90
2022/05/24 00:44:37;;;;;;;5.35;4.70;;;;;;;19.12;63.90;94292.78;5070061;28;20644;-90
2022/05/24 00:47:11;;;;;;;6.90;5.00;;;;;;;19.11;63.59;94293.84;5072920;28;20212;-91
2022/05/24 00:49:50;;;;;;;9.40;5.40;;;;;;;19.10;63.72;94300.19;5068938;28;20209;-83
2022/05/24 00:52:27;;;;;;;9.25;4.85;;;;;;;19.17;63.03;94297.22;5065467;28;20214;-82
2022/05/24 00:55:21;;;;;;;9.00;4.90;;;;;;;19.13;62.44;94294.34;5066229;28;20663;-83
2022/05/24 00:58:08;;;;;;;7.05;4.93;;;;;;;19.02;62.90;94292.09;5065385;28;20194;-83
2022/05/24 01:00:42;;;;;;;8.20;4.68;;;;;;;19.04;62.59;94311.84;5066770;28;20214;-83
2022/05/24 01:03:20;;;;;;;7.47;4.50;;;;;;;19.07;61.24;94307.88;5068231;28;20327;-83
2022/05/24 01:05:56;;;;;;;6.05;4.32;;;;;;;18.98;61.37;94307.69;5067224;28;20212;-83
2022/05/24 01:08:28;;;;;;;8.80;4.22;;;;;;;18.96;61.13;94301.13;5069348;28;20205;-83
2022/05/24 01:11:02;;;;;;;7.65;3.90;;;;;;;18.89;61.17;94290.13;5065486;28;20209;-82
2022/05/24 01:13:38;;;;;;;5.82;3.92;;;;;;;18.81;60.90;94303.91;5067859;28;20726;-82
2022/05/24 01:16:13;;;;;;;7.25;4.35;;;;;;;18.83;61.28;94307.03;5066337;28;20219;-83
2022/05/24 01:18:48;;;;;;;5.70;4.25;;;;;;;18.77;61.71;94281.81;5071638;28;20731;-83
2022/05/24 01:21:22;;;;;;;9.10;4.13;;;;;;;18.75;61.90;94297.91;5065335;28;20258;-83
2022/05/24 01:24:03;;;;;;;6.53;3.90;;;;;;;18.70;61.35;94290.81;5065728;28;20201;-83
2022/05/24 01:26:51;;;;;;;4.55;3.78;;;;;;;18.50;61.37;94284.94;5067670;28;20284;-84
2022/05/24 01:29:22;;;;;;;4.85;3.55;;;;;;;18.58;61.14;94293.03;5065065;28;20295;-84
2022/05/24 01:37:36;;;;;;;6.85;3.90;;;;;;;18.66;60.98;94279.28;5066269;28;20295;-83
2022/05/24 01:40:12;;;;;;;5.93;3.90;;;;;;;18.67;61.03;94272.19;5067189;28;20254;-83
2022/05/24 01:42:52;;;;;;;9.57;3.50;;;;;;;18.67;61.27;94287.97;5066471;28;20294;-83
2022/05/24 01:45:29;;;;;;;6.68;3.88;;;;;;;18.57;61.71;94280.16;5065903;28;20211;-82
2022/05/24 01:48:22;;;;;;;9.27;4.32;;;;;;;18.61;61.44;94289.06;5068960;28;20201;-83
2022/05/24 01:51:00;;;;;;;7.15;3.72;;;;;;;18.57;61.59;94290.69;5069723;28;20680;-88
2022/05/24 01:53:54;;;;;;;8.93;3.88;;;;;;;18.49;62.23;94297.31;5066716;28;20205;-88
2022/05/24 01:56:33;;;;;;;7.18;3.97;;;;;;;18.51;61.97;94289.13;5069234;28;20205;-88
2022/05/24 01:59:15;;;;;;;7.28;3.40;;;;;;;18.54;61.98;94285.97;5068561;28;20205;-89
2022/05/24 02:01:52;;;;;;;5.82;3.65;;;;;;;18.45;62.62;94292.84;5067435;28;20215;-89
2022/05/24 02:04:26;;;;;;;5.10;3.80;;;;;;;18.45;62.63;94306.78;5065626;28;20307;-88
2022/05/24 02:07:11;;;;;;;9.32;4.32;;;;;;;18.49;62.72;94302.59;5067576;28;20197;-88
2022/05/24 02:09:46;;;;;;;11.35;4.28;;;;;;;18.51;62.86;94310.19;5069210;28;20244;-89
2022/05/24 02:12:22;;;;;;;4.50;3.92;;;;;;;18.46;63.17;94303.09;5070363;28;20210;-88
2022/05/24 02:15:05;;;;;;;5.93;3.90;;;;;;;18.50;63.99;94309.41;5068945;28;20221;-91
2022/05/24 02:17:42;;;;;;;7.68;4.38;;;;;;;18.53;63.90;94300.16;5070245;28;20660;-92
2022/05/24 02:20:25;;;;;;;7.70;4.40;;;;;;;18.54;64.03;94299.13;5075147;28;20267;-92
2022/05/24 02:23:00;;;;;;;12.00;4.18;;;;;;;18.56;64.24;94312.78;5069572;28;20201;-93
2022/05/24 02:25:39;;;;;;;5.88;4.50;;;;;;;18.55;64.10;94290.97;5072881;28;20566;-92
2022/05/24 02:28:15;;;;;;;5.95;4.28;;;;;;;18.51;65.00;94282.03;5073855;28;20266;-91
2022/05/24 02:30:54;;;;;;;5.95;4.60;;;;;;;18.56;65.40;94265.41;5074136;28;20255;-91
2022/05/24 02:33:26;;;;;;;10.00;4.88;;;;;;;18.51;65.38;94260.97;5069232;28;20209;-86
2022/05/24 02:36:00;;;;;;;6.55;4.65;;;;;;;18.49;66.12;94286.81;5066633;28;20217;-88
2022/05/24 02:38:33;;;;;;;7.88;4.70;;;;;;;18.35;67.30;94306.88;5066995;28;20193;-89
2022/05/24 02:43:53;;;;;;;7.93;4.72;;;;;;;18.30;68.50;94314.00;5066240;28;20197;-90
2022/05/24 02:46:28;;;;;;;7.45;4.60;;;;;;;18.32;68.42;94317.16;5065342;28;20212;-89
2022/05/24 02:49:01;;;;;;;12.52;5.15;;;;;;;18.25;69.19;94312.19;5066516;28;20295;-89
2022/05/24 02:51:31;;;;;;;7.85;5.00;;;;;;;18.19;69.22;94312.50;5066291;28;20592;-90
2022/05/24 02:54:07;;;;;;;8.15;4.50;;;;;;;18.20;69.80;94316.72;5066429;28;20319;-91
2022/05/24 02:56:44;;;;;;;6.85;4.57;;;;;;;18.18;69.27;94303.84;5069387;28;21892;-90
2022/05/24 02:59:17;;;;;;;9.80;4.50;;;;;;;18.21;69.92;94315.66;5067531;28;20667;-91
2022/05/24 03:01:59;;;;;;;7.93;4.25;;;;;;;18.19;69.79;94315.91;5070986;28;20648;-91
2022/05/24 03:04:32;;;;;;;7.00;4.30;;;;;;;18.22;70.03;94322.47;5068382;28;20663;-91
2022/05/24 03:10:22;;;;;;;9.70;4.20;;;;;;;18.28;69.82;94321.38;5029906;28;20205;-91
2022/05/24 03:15:49;;;;;;;9.80;4.63;;;;;;;18.28;69.64;94318.75;5069548;28;20208;-92
2022/05/24 03:18:27;;;;;;;10.38;4.50;;;;;;;18.27;69.97;94317.97;5061156;28;20587;-91
2022/05/24 03:20:57;;;;;;;10.30;4.30;;;;;;;18.23;70.36;94324.06;5071174;28;20288;-90
2022/05/24 03:23:35;;;;;;;11.18;4.75;;;;;;;18.22;70.70;94322.47;5069873;28;20262;-92
2022/05/24 03:26:10;;;;;;;9.82;5.18;;;;;;;18.11;70.89;94319.91;5069140;28;20193;-91
2022/05/24 03:28:46;;;;;;;11.50;4.90;;;;;;;18.05;71.08;94296.53;5068767;28;20224;-92
2022/05/24 03:31:22;;;;;;;9.82;4.50;;;;;;;18.06;71.28;94312.06;5065252;28;20198;-92
2022/05/24 03:33:56;;;;;;;8.70;4.93;;;;;;;18.12;71.37;94307.56;5065640;28;20639;-91
2022/05/24 03:36:32;;;;;;;10.23;4.88;;;;;;;18.07;71.44;94311.00;5065990;28;20211;-91
2022/05/24 03:39:05;;;;;;;8.35;4.95;;;;;;;18.06;71.83;94317.34;5064111;28;21439;-90
2022/05/24 03:41:44;;;;;;;10.32;5.22;;;;;;;18.11;71.82;94322.56;5066551;28;20304;-90
2022/05/24 03:44:20;;;;;;;9.30;4.75;;;;;;;18.11;71.58;94304.13;5067163;28;20233;-90
2022/05/24 03:46:53;;;;;;;12.73;5.13;;;;;;;18.25;71.01;94317.47;5063791;28;20556;-90
2022/05/24 03:49:32;;;;;;;9.57;5.05;;;;;;;18.26;71.12;94315.63;5069390;28;20225;-90
2022/05/24 03:52:06;;;;;;;8.18;5.13;;;;;;;18.24;70.87;94309.84;5067392;28;20619;-91
2022/05/24 03:54:41;;;;;;;15.75;5.57;;;;;;;18.28;71.07;94319.53;5069672;28;20224;-89
2022/05/24 04:00:06;;;;;;;12.70;5.40;;;;;;;18.18;71.84;94317.00;5067601;28;20291;-91
2022/05/24 04:02:37;;;;;;;10.07;5.80;;;;;;;18.23;71.51;94327.47;5074257;28;20216;-89
2022/05/24 04:05:29;;;;;;;10.70;5.55;;;;;;;18.23;71.87;94338.00;5071420;28;20251;-89
2022/05/24 04:08:03;;;;;;;12.80;5.40;;;;;;;18.27;71.75;94333.00;5069329;28;21006;-91
2022/05/24 04:10:36;;;;;;;9.75;5.88;;;;;;;18.28;72.48;94350.31;5071832;28;20269;-90
2022/05/24 04:13:09;;;;;;;10.68;5.70;;;;;;;18.25;71.83;94343.78;5071887;28;20217;-93
2022/05/24 04:15:45;;;;;;;12.25;5.70;;;;;;;18.14;72.07;94343.06;5073424;28;20585;-90
2022/05/24 04:18:19;;;;;;;10.93;5.60;;;;;;;18.06;72.65;94330.47;5073517;28;20595;-89
2022/05/24 04:20:53;;;;;;;10.65;5.35;;;;;;;18.07;72.69;94339.13;5083414;28;20205;-88
2022/05/24 04:23:28;;;;;;;11.10;5.97;;;;;;;18.07;73.50;94339.94;5075996;28;20668;-87
2022/05/24 04:26:00;;;;;;;14.50;5.57;;;;;;;18.14;72.73;94343.06;5068355;28;20193;-74
2022/05/24 04:28:36;;;;;;;14.15;5.20;;;;;;;18.18;72.28;94343.31;5066414;28;20209;-75
2022/05/24 04:31:14;;;;;;;13.73;5.20;;;;;;;18.25;71.86;94346.41;5066108;28;20213;-74
2022/05/24 04:33:45;;;;;;;15.27;5.13;;;;;;;18.21;72.31;94345.38;5066457;28;20641;-74
2022/05/24 04:36:16;;;;;;;7.47;5.03;;;;;;;18.17;72.95;94346.19;5028833;28;20368;-74
2022/05/24 04:38:47;;;;;;;15.20;5.18;;;;;;;18.20;72.79;94341.19;5058348;28;20216;-73
2022/05/24 04:44:07;;;;;;;12.75;5.80;;;;;;;18.27;71.68;94339.00;5024949;28;20220;-74
2022/05/24 04:49:26;;;;;;;10.80;5.72;;;;;;;18.24;72.33;94333.53;5059618;28;20641;-75
2022/05/24 04:51:59;;;;;;;12.18;5.65;;;;;;;18.25;71.71;94337.72;5058107;28;20253;-74
2022/05/24 04:54:31;;;;;;;13.05;5.80;;;;;;;18.27;71.91;94344.28;5059648;28;20300;-74
2022/05/24 04:57:03;;;;;;;15.38;5.63;;;;;;;18.28;71.64;94348.50;5059289;28;20213;-76
2022/05/24 04:59:34;;;;;;;7.63;5.35;;;;;;;18.36;71.59;94355.78;5059852;28;20655;-75
2022/05/24 05:02:07;;;;;;;7.85;5.85;;;;;;;18.26;71.89;94355.09;5059088;28;20216;-75
2022/05/24 05:04:40;;;;;;;10.75;5.70;;;;;;;18.33;71.49;94358.19;5056860;28;20738;-75
2022/05/24 05:07:12;;;;;;;10.55;5.82;;;;;;;18.29;71.65;94357.97;5058940;28;20289;-75
2022/05/24 05:09:43;;;;;;;15.85;6.30;;;;;;;18.36;71.72;94363.69;5060316;28;20233;-75
2022/05/24 05:12:15;;;;;;;11.55;5.78;;;;;;;18.45;71.51;94363.91;5060732;28;20820;-75
2022/05/24 05:14:44;;;;;;;14.15;6.45;;;;;;;18.43;71.35;94364.19;5060042;28;20221;-74
2022/05/24 05:17:16;;;;;;;16.80;6.32;;;;;;;18.51;71.08;94378.63;5059495;28;20208;-74
2022/05/24 05:19:47;;;;;;;10.55;5.68;;;;;;;18.46;70.93;94376.81;5058048;28;20629;-74
2022/05/24 05:22:20;;;;;;;9.75;6.32;;;;;;;18.53;70.46;94371.25;5058851;28;20304;-74
2022/05/24 05:24:49;;;;;;;9.57;5.68;;;;;;;18.48;70.72;94374.72;5058433;28;20289;-75
2022/05/24 05:27:18;;;;;;;16.02;6.00;;;;;;;18.49;70.78;94373.66;5059194;28;20213;-73
2022/05/24 05:32:35;;;;;;;12.57;6.40;;;;;;;18.56;70.47;94376.75;5060826;28;20694;-74
2022/05/24 05:35:07;;;;;;;11.48;5.75;;;;;;;18.56;71.43;94384.66;5059801;28;20225;-74
2022/05/24 05:37:39;;;;;;;10.77;5.95;;;;;;;18.61;70.83;94394.38;5061705;28;20267;-73
2022/05/24 05:40:09;;;;;;;10.20;6.25;;;;;;;18.61;70.22;94395.13;5058905;28;20260;-74
2022/05/24 05:42:39;;;;;;;9.18;6.10;;;;;;;18.61;70.45;94403.03;5058215;28;20324;-75
2022/05/24 05:45:11;;;;;;;11.55;5.78;;;;;;;18.60;70.92;94390.94;5057450;28;20316;-74
2022/05/24 05:47:43;;;;;;;14.40;5.82;;;;;;;18.68;70.66;94394.84;5058522;28;20209;-74
2022/05/24 05:50:12;;;;;;;10.02;5.93;;;;;;;18.62;70.42;94396.72;5057034;28;20194;-75
2022/05/24 05:52:49;;;;;;;13.93;6.47;;;;;;;18.64;69.99;94391.97;5058661;28;20194;-85
2022/05/24 05:55:22;;;;;;;10.90;6.70;;;;;;;18.55;70.11;94398.88;5061215;28;20217;-85
2022/05/24 05:57:59;;;;;;;15.48;6.35;;;;;;;18.36;70.58;94411.06;5062458;28;20590;-85
2022/05/24 06:00:28;;;;;;;6.55;5.65;;;;;;;18.33;73.23;94408.97;5066005;28;20189;-85
2022/05/24 06:03:01;;;;;;;12.00;6.05;;;;;;;18.33;74.70;94408.97;5066220;28;20688;-84
2022/05/24 06:05:31;;;;;;;12.60;5.72;;;;;;;18.33;73.14;94408.97;5062655;28;20208;-85
2022/05/24 06:08:08;;;;;;;13.85;6.00;;;;;;;18.45;72.03;94417.31;5061543;28;20213;-84
2022/05/24 06:10:41;;;;;;;12.63;6.18;;;;;;;18.44;72.17;94420.25;5063674;28;20231;-85
2022/05/24 06:13:10;;;;;;;9.82;6.28;;;;;;;18.44;71.61;94423.63;5061862;28;20741;-85
2022/05/24 06:15:48;;;;;;;11.00;6.35;;;;;;;18.55;71.05;94433.09;5063746;28;20398;-84
2022/05/24 06:18:20;;;;;;;8.85;5.93;;;;;;;18.60;70.44;94411.22;5063061;28;20282;-87
2022/05/24 06:20:49;;;;;;;12.30;6.22;;;;;;;18.70;70.31;94427.72;5061299;28;20259;-86
2022/05/24 06:23:21;;;;;;;8.57;6.07;;;;;;;18.66;69.18;94412.75;5062745;28;20232;-88
2022/05/24 06:25:51;;;;;;;11.15;6.03;;;;;;;18.73;69.45;94417.72;5060188;28;20279;-81
2022/05/24 06:28:23;;;;;;;13.52;6.60;;;;;;;18.82;69.55;94419.47;5061078;28;20213;-84
2022/05/24 06:30:51;;;;;;;13.98;6.15;;;;;;;18.75;70.45;94402.44;5061712;28;20542;-87
2022/05/24 06:33:22;;;;;;;12.20;6.00;;;;;;;18.87;69.94;94406.28;5065272;28;20205;-88
2022/05/24 06:35:54;;;;;;;11.23;5.75;;;;;;;18.94;69.53;94398.84;5062175;28;20226;-88
2022/05/24 06:38:27;;;;;;;12.40;6.80;;;;;;;18.66;68.70;94354.84;5060380;28;20198;-90
2022/05/24 06:40:56;;;;;;;10.90;6.65;;;;;;;18.80;68.48;94368.94;5063587;28;20614;-89
2022/05/24 06:43:31;;;;;;;13.98;7.97;;;;;;;18.91;68.85;94388.88;5063493;28;20197;-84
2022/05/24 06:46:07;;;;;;;12.25;7.68;;;;;;;18.95;68.72;94399.66;5061211;28;20289;-86
2022/05/24 06:48:39;;;;;;;18.67;7.57;;;;;;;19.04;68.68;94395.34;5061735;28;20193;-82
2022/05/24 06:51:17;;;;;;;9.98;6.47;;;;;;;19.10;68.09;94389.78;5060434;28;20201;-80
2022/05/24 06:53:54;;;;;;;10.82;6.43;;;;;;;19.24;67.31;94384.63;5058961;28;20201;-73
2022/05/24 06:56:25;;;;;;;12.15;6.75;;;;;;;19.35;67.37;94378.19;5060404;28;20216;-82
2022/05/24 07:02:25;;;;;;;13.32;7.35;;;;;;;19.44;67.05;94376.56;5061342;28;20201;-82
2022/05/24 07:04:48;;;;;;;9.00;6.78;;;;;;;19.62;67.39;94378.50;5002602;28;20204;-82
2022/05/24 07:07:21;;;;;;;15.32;7.32;;;;;;;19.64;66.06;94367.66;5047247;28;20209;-81
2022/05/24 07:09:57;;;;;;;10.65;6.55;;;;;;;19.77;64.68;94375.66;5059431;28;20275;-76
2022/05/24 07:12:30;;;;;;;11.30;7.82;;;;;;;19.86;64.38;94378.47;5057925;28;20201;-77
2022/05/24 07:15:01;;;;;;;11.57;7.93;;;;;;;19.89;64.69;94383.16;5055165;28;20671;-77
2022/05/24 07:17:34;;;;;;;12.93;7.53;;;;;;;19.95;64.40;94387.31;5056964;28;21116;-77
2022/05/24 07:20:09;;;;;;;12.10;7.22;;;;;;;20.06;63.84;94393.25;5056971;28;20684;-78
2022/05/24 07:22:42;;;;;;;13.98;7.30;;;;;;;20.07;64.13;94386.91;5060280;28;20244;-85
2022/05/24 07:25:17;;;;;;;11.50;7.15;;;;;;;20.10;64.03;94387.16;5065146;28;20267;-81
2022/05/24 07:27:48;;;;;;;11.95;7.28;;;;;;;20.08;64.81;94385.84;5065293;28;20199;-82
2022/05/24 07:30:21;;;;;;;16.92;7.43;;;;;;;20.11;64.89;94380.81;5064148;28;20205;-82
2022/05/24 07:32:52;;;;;;;17.60;7.82;;;;;;;20.29;63.99;94381.91;5062285;28;20588;-81
2022/05/24 07:35:22;;;;;;;18.20;7.70;;;;;;;20.42;63.37;94378.56;5060665;28;20216;-80
2022/05/24 07:37:57;;;;;;;16.52;6.72;;;;;;;20.52;63.06;94381.03;5059917;28;20939;-81
2022/05/24 07:46:09;;;;;;;11.82;6.50;;;;;;;20.77;62.32;94377.25;5037376;28;20247;-80
2022/05/24 07:48:38;;;;;;;13.27;6.57;;;;;;;20.91;62.68;94372.81;5038404;28;20213;-80
2022/05/24 07:51:11;;;;;;;13.30;6.88;;;;;;;21.06;61.99;94388.44;5040326;28;20206;-83
2022/05/24 07:53:45;;;;;;;8.98;6.70;;;;;;;21.16;61.59;94379.56;5042166;28;20214;-83
2022/05/24 07:56:21;;;;;;;13.15;7.63;;;;;;;21.23;60.48;94378.13;5039454;28;20226;-82
2022/05/24 07:58:52;;;;;;;15.50;7.40;;;;;;;21.18;61.03;94357.03;5040830;28;20209;-82
2022/05/24 08:01:25;;;;;;;12.95;7.25;;;;;;;21.37;61.31;94371.00;5038914;28;20210;-82
2022/05/24 08:03:55;;;;;;;14.43;7.47;;;;;;;21.50;60.72;94372.06;5039683;28;20285;-82
2022/05/24 08:06:25;;;;;;;13.52;6.20;;;;;;;21.58;59.79;94382.00;5039672;28;20205;-80
2022/05/24 08:09:00;;;;;;;11.07;6.70;;;;;;;21.55;59.29;94365.91;5038832;28;20210;-80
2022/05/24 08:11:32;;;;;;;10.38;6.60;;;;;;;21.60;59.14;94373.75;5039097;28;20630;-81
2022/05/24 08:14:06;;;;;;;18.75;6.28;;;;;;;21.62;59.51;94374.25;5038569;28;20218;-81
2022/05/24 08:16:39;;;;;;;11.70;6.50;;;;;;;21.67;59.28;94374.16;5040235;28;20236;-81
2022/05/24 08:19:13;;;;;;;8.43;6.07;;;;;;;21.66;59.98;94378.66;5039958;28;20212;-80
2022/05/24 08:21:43;;;;;;;13.80;6.50;;;;;;;21.69;60.70;94379.94;5041543;28;20264;-81
2022/05/24 08:24:15;;;;;;;11.93;6.75;;;;;;;21.78;60.25;94370.25;5038382;28;20263;-83
2022/05/24 08:26:49;;;;;;;14.20;6.25;;;;;;;21.96;59.81;94372.78;5040749;28;20194;-82
2022/05/24 08:29:22;;;;;;;12.63;6.57;;;;;;;22.10;59.66;94378.09;5038546;28;20752;-82
2022/05/24 08:31:55;;;;;;;14.18;7.35;;;;;;;22.20;59.29;94369.94;5039356;28;20305;-82
2022/05/24 08:34:23;;;;;;;12.65;6.40;;;;;;;22.34;58.85;94367.25;5038661;28;20209;-82
2022/05/24 08:36:53;;;;;;;11.43;6.63;;;;;;;22.44;57.51;94370.47;5039395;28;20236;-83
2022/05/24 08:39:25;;;;;;;10.15;6.78;;;;;;;22.53;56.92;94366.03;5038732;28;20596;-81
2022/05/24 08:42:09;;;;;;;15.75;6.72;;;;;;;22.60;57.56;94366.41;5051107;28;20241;-82
2022/05/24 08:50:37;;;;;;;20.17;6.68;;;;;;;22.82;56.95;94378.13;4997960;28;20208;-82
2022/05/24 08:53:14;;;;;;;11.57;6.35;;;;;;;22.91;56.51;94368.38;4998742;28;20207;-82
2022/05/24 08:55:47;;;;;;;14.93;6.53;;;;;;;22.96;56.46;94369.03;5031988;28;20286;-82
2022/05/24 08:58:30;;;;;;;15.70;6.78;;;;;;;23.13;56.87;94371.81;5058632;28;20213;-82
2022/05/24 09:01:02;;;;;;;15.88;6.75;;;;;;;23.26;56.79;94372.78;5061208;28;20647;-82
2022/05/24 09:03:35;;;;;;;11.10;6.60;;;;;;;23.39;55.23;94373.84;5061877;28;20198;-82
2022/05/24 09:06:10;;;;;;;14.85;8.38;;;;;;;23.38;54.30;94365.09;5059665;28;20204;-81
2022/05/24 09:08:51;;;;;;;11.90;6.90;;;;;;;23.62;54.17;94370.06;5058317;28;20205;-83
2022/05/24 09:11:32;;;;;;;15.82;6.88;;;;;;;23.73;54.27;94372.13;5059860;28;20258;-80
2022/05/24 09:14:16;;;;;;;13.27;6.68;;;;;;;23.81;53.62;94359.97;5058692;28;20213;-79
2022/05/24 09:16:56;;;;;;;12.38;6.60;;;;;;;23.83;54.11;94354.38;5059107;28;20227;-80
2022/05/24 09:19:29;;;;;;;10.07;6.28;;;;;;;23.96;54.05;94351.59;5057397;28;20400;-81
2022/05/24 09:22:06;;;;;;;18.42;6.90;;;;;;;24.15;53.88;94344.19;5058465;28;20605;-80
2022/05/24 09:24:47;;;;;;;11.95;6.80;;;;;;;24.24;53.68;94349.50;5059719;28;20295;-80
2022/05/24 09:27:21;;;;;;;12.25;7.47;;;;;;;24.35;51.81;94350.75;5060226;28;20304;-82
2022/05/24 09:30:07;;;;;;;16.85;7.10;;;;;;;24.48;52.17;94347.16;5060542;28;20610;-81
2022/05/24 09:32:41;;;;;;;14.82;7.13;;;;;;;24.61;52.80;94340.94;5060753;28;20271;-81
2022/05/24 09:35:25;;;;;;;13.55;7.22;;;;;;;24.73;51.63;94354.34;5057408;28;20605;-80
2022/05/24 09:38:17;;;;;;;14.75;6.90;;;;;;;24.86;50.00;94357.97;5057816;28;20229;-81
2022/05/24 09:41:03;;;;;;;13.93;7.25;;;;;;;24.99;51.30;94353.59;5057852;28;20208;-82
2022/05/24 09:43:36;;;;;;;13.90;7.53;;;;;;;25.13;51.64;94359.53;5058755;28;20205;-81
2022/05/24 09:46:13;;;;;;;12.95;6.53;;;;;;;25.31;50.56;94347.75;5057212;28;20290;-81
2022/05/24 09:48:59;;;;;;;15.15;7.15;;;;;;;25.44;49.67;94352.09;5058944;28;20658;-81
2022/05/24 09:51:36;;;;;;;11.30;6.90;;;;;;;25.48;48.80;94345.06;5058569;28;20618;-80
2022/05/24 09:54:08;;;;;;;14.18;7.25;;;;;;;25.59;49.30;94351.59;5056222;28;20207;-81
2022/05/24 09:56:40;;;;;;;12.52;6.72;;;;;;;25.58;49.32;94334.06;5057338;28;20556;-81
2022/05/24 09:59:26;;;;;;;14.95;6.97;;;;;;;25.69;48.94;94348.56;5056792;28;20212;-81
2022/05/24 10:02:02;;;;;;;10.60;6.65;;;;;;;25.75;49.27;94333.19;5055834;28;20197;-81
2022/05/24 10:04:39;;;;;;;16.75;6.60;;;;;;;25.94;48.33;94344.25;5056294;28;20514;-81
2022/05/24 10:07:26;;;;;;;13.68;6.93;;;;;;;26.19;48.52;94342.56;5057325;28;20324;-80
2022/05/24 10:10:08;;;;;;;16.35;6.38;;;;;;;26.38;47.26;94342.88;5058666;28;20789;-83
2022/05/24 10:12:59;;;;;;;13.35;6.60;;;;;;;26.59;47.29;94349.00;5058829;28;20209;-79
2022/05/24 10:15:37;;;;;;;11.85;6.30;;;;;;;26.86;47.12;94347.72;5058241;28;20205;-79
2022/05/24 10:18:33;;;;;;;12.48;6.60;;;;;;;27.08;46.34;94341.25;5058391;28;20233;-82
2022/05/24 10:21:13;;;;;;;17.48;7.95;;;;;;;27.17;44.89;94344.59;5059617;28;20841;-82
2022/05/24 10:23:55;;;;;;;12.55;6.70;;;;;;;27.34;45.10;94345.22;5058350;28;20198;-82
2022/05/24 10:26:42;;;;;;;15.30;7.43;;;;;;;27.32;44.45;94336.75;5058430;28;20237;-83
2022/05/24 10:29:22;;;;;;;11.52;6.80;;;;;;;27.40;44.67;94333.22;5057874;28;20314;-83
2022/05/24 10:31:58;;;;;;;13.05;7.10;;;;;;;27.49;45.03;94328.59;5057150;28;20232;-82
2022/05/24 10:40:33;;;;;;;9.18;6.28;;;;;;;28.14;43.79;94319.59;5056178;28;20231;-81
2022/05/24 10:43:22;;;;;;;9.65;6.72;;;;;;;28.29;43.04;94317.34;5055737;28;20245;-82
2022/05/24 10:46:01;;;;;;;13.50;6.70;;;;;;;28.48;42.62;94310.31;5056194;28;20228;-82
2022/05/24 10:48:36;;;;;;;9.85;6.45;;;;;;;28.60;42.29;94312.91;5058032;28;20399;-82
2022/05/24 10:51:17;;;;;;;16.77;6.63;;;;;;;28.70;42.38;94307.13;5055887;28;20215;-83
2022/05/24 10:53:52;;;;;;;7.80;6.15;;;;;;;28.69;41.39;94318.16;5056729;28;20197;-81
2022/05/24 10:56:38;;;;;;;13.90;6.90;;;;;;;28.64;42.05;94316.50;5056572;28;20204;-82
2022/05/24 10:59:19;;;;;;;13.20;6.50;;;;;;;28.84;41.89;94311.31;5054458;28;20209;-80
2022/05/24 11:01:56;;;;;;;13.38;6.68;;;;;;;29.05;41.70;94319.91;5053876;28;20293;-81
2022/05/24 11:04:36;;;;;;;8.82;6.15;;;;;;;29.48;40.96;94313.78;5056922;28;20670;-80
2022/05/24 11:07:18;;;;;;;13.93;7.10;;;;;;;29.73;41.04;94305.22;5055169;28;20656;-81
2022/05/24 11:09:59;;;;;;;11.73;6.63;;;;;;;29.97;40.40;94306.19;5061308;28;20392;-80
2022/05/24 11:12:35;;;;;;;12.13;6.90;;;;;;;30.14;40.10;94311.19;5057822;28;20619;-80
2022/05/24 11:15:12;;;;;;;18.48;7.00;;;;;;;30.24;39.46;94303.38;5057878;28;20197;-80
2022/05/24 11:17:44;;;;;;;13.73;6.47;;;;;;;30.18;39.97;94304.78;5059960;28;20231;-81
2022/05/24 11:20:19;;;;;;;18.00;7.07;;;;;;;30.23;39.63;94291.09;5056888;28;20647;-81
2022/05/24 11:23:07;;;;;;;15.98;7.15;;;;;;;30.48;39.75;94293.56;5056604;28;20200;-80
2022/05/24 11:25:44;;;;;;;8.80;6.85;;;;;;;30.45;38.92;94288.91;5055540;28;20217;-81
2022/05/24 11:28:23;;;;;;;12.50;7.13;;;;;;;30.62;38.64;94291.16;5055583;28;20599;-80
2022/05/24 11:30:58;;;;;;;20.92;7.57;;;;;;;30.80;38.38;94289.59;5056653;28;20228;-81
2022/05/24 11:33:43;;;;;;;13.98;7.72;;;;;;;30.79;37.83;94280.00;5056522;28;20196;-80
2022/05/24 11:36:41;;;;;;;14.25;6.88;;;;;;;30.36;39.17;94267.63;5056906;28;20224;-80
2022/05/24 11:39:18;;;;;;;12.75;6.80;;;;;;;30.30;39.33;94269.78;5055925;28;20205;-81
2022/05/24 11:41:50;;;;;;;15.02;6.72;;;;;;;30.41;39.36;94269.25;5055716;28;20300;-81
2022/05/24 11:44:37;;;;;;;10.55;7.50;;;;;;;30.80;39.14;94263.53;5056161;28;20626;-80
2022/05/24 11:47:07;;;;;;;12.70;7.28;;;;;;;30.83;37.94;94260.13;5055739;28;20201;-80
2022/05/24 11:50:06;;;;;;;15.55;6.65;;;;;;;31.12;37.29;94249.94;5056895;28;20239;-80
2022/05/24 11:52:45;;;;;;;12.68;7.28;;;;;;;31.39;37.34;94246.19;5057646;28;20254;-81
2022/05/24 11:56:14;;;;;;;14.85;7.15;;;;;;;31.42;36.96;94234.72;5056601;28;21269;-80
2022/05/24 11:58:48;;;;;;;14.07;6.97;;;;;;;31.71;36.96;94239.44;5057517;28;20229;-81
2022/05/24 12:01:49;;;;;;;9.98;7.00;;;;;;;31.89;36.85;94232.41;5056199;28;20209;-81
2022/05/24 12:10:51;;;;;;;12.85;7.20;;;;;;;31.43;37.16;94223.59;5066898;28;20205;-80
2022/05/24 12:13:51;;;;;;;13.35;7.18;;;;;;;31.34;37.18;94223.06;5065933;28;20213;-80
2022/05/24 12:16:44;;;;;;;14.52;7.10;;;;;;;31.82;37.08;94215.41;5055811;28;20205;-80
2022/05/24 12:19:37;;;;;;;15.27;7.15;;;;;;;32.15;36.74;94223.56;5058864;28;20197;-80
2022/05/24 12:22:16;;;;;;;14.98;6.85;;;;;;;32.17;36.31;94220.50;5057522;28;20612;-81
2022/05/24 12:24:54;;;;;;;13.73;7.53;;;;;;;31.91;36.41;94219.38;5059432;28;20201;-82
2022/05/24 12:27:34;;;;;;;13.98;7.53;;;;;;;31.60;36.88;94221.59;5059826;28;20272;-79
2022/05/24 12:30:29;;;;;;;18.85;7.45;;;;;;;31.38;36.88;94218.53;5058487;28;20216;-81
2022/05/24 12:33:06;;;;;;;12.15;7.13;;;;;;;31.28;37.69;94205.72;5058522;28;20221;-81
2022/05/24 12:35:39;;;;;;;16.80;6.85;;;;;;;31.32;37.63;94203.06;5058622;28;20275;-80
2022/05/24 12:38:22;;;;;;;13.90;7.20;;;;;;;31.58;37.34;94200.44;5057570;28;20264;-81
2022/05/24 12:40:51;;;;;;;12.63;7.20;;;;;;;31.90;37.53;94207.06;5057841;28;20788;-80
2022/05/24 12:43:24;;;;;;;9.85;6.88;;;;;;;32.08;37.10;94212.72;5058032;28;20332;-80
2022/05/24 12:46:04;;;;;;;12.20;6.03;;;;;;;32.35;36.45;94210.75;5059357;28;20358;-80
2022/05/24 12:48:39;;;;;;;11.63;6.70;;;;;;;32.67;35.88;94203.09;5059183;28;20492;-79
2022/05/24 12:51:12;;;;;;;15.35;7.32;;;;;;;32.52;35.52;94210.19;5061452;28;20216;-80
2022/05/24 12:53:44;;;;;;;17.17;7.38;;;;;;;32.36;36.04;94207.69;5060347;28;20205;-80
2022/05/24 12:56:22;;;;;;;16.42;7.32;;;;;;;32.07;36.37;94211.16;5057905;28;20286;-80
2022/05/24 12:58:56;;;;;;;12.35;7.22;;;;;;;32.06;36.35;94215.00;5057557;28;20315;-81
2022/05/24 13:01:30;;;;;;;15.60;7.65;;;;;;;32.26;36.63;94208.34;5055582;28;20471;-81